sensor_id;sensor_type;location;lat;lon;timestamp;pressure;altitude;pressure_sealevel;temperature;humidity
13553;BME280;6847;48.830;9.116;2023-04-20T00:00:03;97905.44;;;6.90;49.27
13553;BME280;6847;48.830;9.116;2023-04-20T00:02:35;97838.78;;;6.49;49.13
13553;BME280;6847;48.830;9.116;2023-04-20T00:05:09;97843.06;;;6.45;49.29
13553;BME280;6847;48.830;9.116;2023-04-20T00:07:35;97900.44;;;6.77;49.51
13553;BME280;6847;48.830;9.116;2023-04-20T00:10:09;97895.00;;;6.72;49.87
13553;BME280;6847;48.830;9.116;2023-04-20T00:12:40;97898.19;;;6.69;49.52
13553;BME280;6847;48.830;9.116;2023-04-20T00:15:09;97897.09;;;6.65;49.64
13553;BME280;6847;48.830;9.116;2023-04-20T00:17:36;97886.81;;;6.62;49.68
13553;BME280;6847;48.830;9.116;2023-04-20T00:20:04;97881.94;;;6.59;49.62
13553;BME280;6847;48.830;9.116;2023-04-20T00:22:34;97873.31;;;6.57;50.31
13553;BME280;6847;48.830;9.116;2023-04-20T00:25:03;97880.84;;;6.55;49.80
13553;BME280;6847;48.830;9.116;2023-04-20T00:27:30;97877.56;;;6.53;49.74
13553;BME280;6847;48.830;9.116;2023-04-20T00:30:04;97874.63;;;6.54;50.35
13553;BME280;6847;48.830;9.116;2023-04-20T00:32:31;97864.69;;;6.55;49.81
13553;BME280;6847;48.830;9.116;2023-04-20T00:35:02;97872.19;;;6.53;49.80
13553;BME280;6847;48.830;9.116;2023-04-20T00:37:28;97792.38;;;6.10;49.83
13553;BME280;6847;48.830;9.116;2023-04-20T00:39:59;97863.25;;;6.47;49.97
13553;BME280;6847;48.830;9.116;2023-04-20T00:42:26;97808.84;;;6.18;49.81
13553;BME280;6847;48.830;9.116;2023-04-20T00:44:53;97841.94;;;6.41;50.54
13553;BME280;6847;48.830;9.116;2023-04-20T00:47:21;97698.31;;;5.44;50.67
13553;BME280;6847;48.830;9.116;2023-04-20T00:49:48;97845.88;;;6.33;50.20
13553;BME280;6847;48.830;9.116;2023-04-20T00:52:15;97806.03;;;6.08;50.32
13553;BME280;6847;48.830;9.116;2023-04-20T00:54:42;97838.56;;;6.28;50.79
13553;BME280;6847;48.830;9.116;2023-04-20T00:57:10;97836.09;;;6.27;50.75
13553;BME280;6847;48.830;9.116;2023-04-20T00:59:42;97789.25;;;5.96;50.74
13553;BME280;6847;48.830;9.116;2023-04-20T01:02:09;97834.19;;;6.22;50.80
13553;BME280;6847;48.830;9.116;2023-04-20T01:04:40;97834.69;;;6.19;50.34
13553;BME280;6847;48.830;9.116;2023-04-20T01:07:09;97830.31;;;6.13;51.14
13553;BME280;6847;48.830;9.116;2023-04-20T01:09:36;97815.16;;;6.07;50.59
13553;BME280;6847;48.830;9.116;2023-04-20T01:12:09;97806.44;;;5.95;50.41
13553;BME280;6847;48.830;9.116;2023-04-20T01:14:35;97793.41;;;5.87;50.36
13553;BME280;6847;48.830;9.116;2023-04-20T01:17:07;97811.00;;;5.94;51.21
13553;BME280;6847;48.830;9.116;2023-04-20T01:19:36;97795.38;;;5.91;50.87
13553;BME280;6847;48.830;9.116;2023-04-20T01:22:03;97795.03;;;5.88;51.03
13553;BME280;6847;48.830;9.116;2023-04-20T01:24:32;97797.16;;;5.86;50.53
13553;BME280;6847;48.830;9.116;2023-04-20T01:26:58;97785.28;;;5.82;50.48
13553;BME280;6847;48.830;9.116;2023-04-20T01:29:28;97785.75;;;5.79;50.60
13553;BME280;6847;48.830;9.116;2023-04-20T01:31:57;97714.28;;;5.34;51.21
13553;BME280;6847;48.830;9.116;2023-04-20T01:34:27;97779.75;;;5.72;51.42
13553;BME280;6847;48.830;9.116;2023-04-20T01:36:54;97768.88;;;5.62;51.40
13553;BME280;6847;48.830;9.116;2023-04-20T01:39:21;97774.84;;;5.64;50.76
13553;BME280;6847;48.830;9.116;2023-04-20T01:41:54;97767.25;;;5.61;51.01
13553;BME280;6847;48.830;9.116;2023-04-20T01:44:21;97769.38;;;5.58;51.04
13553;BME280;6847;48.830;9.116;2023-04-20T01:46:51;97759.97;;;5.56;51.36
13553;BME280;6847;48.830;9.116;2023-04-20T01:49:21;97753.22;;;5.53;51.11
13553;BME280;6847;48.830;9.116;2023-04-20T01:51:49;97751.81;;;5.51;50.86
13553;BME280;6847;48.830;9.116;2023-04-20T01:54:16;97751.25;;;5.49;51.03
13553;BME280;6847;48.830;9.116;2023-04-20T01:56:44;97750.97;;;5.45;51.17
13553;BME280;6847;48.830;9.116;2023-04-20T01:59:12;97747.22;;;5.46;51.10
13553;BME280;6847;48.830;9.116;2023-04-20T02:01:42;97747.75;;;5.48;51.14
13553;BME280;6847;48.830;9.116;2023-04-20T02:04:09;97736.16;;;5.43;51.77
13553;BME280;6847;48.830;9.116;2023-04-20T02:06:41;97739.69;;;5.48;51.06
13553;BME280;6847;48.830;9.116;2023-04-20T02:09:15;97718.41;;;5.42;51.80
13553;BME280;6847;48.830;9.116;2023-04-20T02:11:42;97738.16;;;5.52;51.87
13553;BME280;6847;48.830;9.116;2023-04-20T02:14:16;97738.66;;;5.49;51.47
13553;BME280;6847;48.830;9.116;2023-04-20T02:16:44;97733.78;;;5.46;52.12
13553;BME280;6847;48.830;9.116;2023-04-20T02:19:11;97664.38;;;4.95;51.32
13553;BME280;6847;48.830;9.116;2023-04-20T02:21:39;97729.38;;;5.40;52.17
13553;BME280;6847;48.830;9.116;2023-04-20T02:24:08;97734.75;;;5.40;51.58
13553;BME280;6847;48.830;9.116;2023-04-20T02:26:38;97725.03;;;5.34;52.29
13553;BME280;6847;48.830;9.116;2023-04-20T02:29:05;97732.31;;;5.39;51.54
13553;BME280;6847;48.830;9.116;2023-04-20T02:31:33;97725.84;;;5.35;51.39
13553;BME280;6847;48.830;9.116;2023-04-20T02:34:01;97719.09;;;5.32;51.59
13553;BME280;6847;48.830;9.116;2023-04-20T02:36:30;97713.66;;;5.27;51.95
13553;BME280;6847;48.830;9.116;2023-04-20T02:38:59;97717.06;;;5.22;52.48
13553;BME280;6847;48.830;9.116;2023-04-20T02:41:28;97708.97;;;5.17;52.54
13553;BME280;6847;48.830;9.116;2023-04-20T02:43:58;97707.81;;;5.13;52.26
13553;BME280;6847;48.830;9.116;2023-04-20T02:46:25;97645.22;;;4.69;52.35
13553;BME280;6847;48.830;9.116;2023-04-20T02:48:55;97700.19;;;5.05;52.49
13553;BME280;6847;48.830;9.116;2023-04-20T02:51:23;97697.75;;;5.04;51.90
13553;BME280;6847;48.830;9.116;2023-04-20T02:53:50;97685.25;;;4.93;51.88
13553;BME280;6847;48.830;9.116;2023-04-20T02:56:20;97698.25;;;5.01;52.85
13553;BME280;6847;48.830;9.116;2023-04-20T02:58:53;97689.66;;;4.99;52.08
13553;BME280;6847;48.830;9.116;2023-04-20T03:01:19;97682.09;;;4.96;52.55
13553;BME280;6847;48.830;9.116;2023-04-20T03:03:51;97683.13;;;4.95;52.54
13553;BME280;6847;48.830;9.116;2023-04-20T03:06:21;97688.03;;;4.98;52.42
13553;BME280;6847;48.830;9.116;2023-04-20T03:08:48;97685.59;;;4.96;52.67
13553;BME280;6847;48.830;9.116;2023-04-20T03:11:17;97686.63;;;4.95;52.97
13553;BME280;6847;48.830;9.116;2023-04-20T03:13:48;97687.69;;;4.94;52.24
13553;BME280;6847;48.830;9.116;2023-04-20T03:16:16;97688.16;;;4.91;52.52
13553;BME280;6847;48.830;9.116;2023-04-20T03:18:57;97687.88;;;4.88;52.93
13553;BME280;6847;48.830;9.116;2023-04-20T03:21:25;97682.34;;;4.77;52.47
13553;BME280;6847;48.830;9.116;2023-04-20T03:23:54;97689.66;;;4.82;53.13
13553;BME280;6847;48.830;9.116;2023-04-20T03:26:23;97681.84;;;4.80;52.55
13553;BME280;6847;48.830;9.116;2023-04-20T03:28:52;97679.66;;;4.77;52.33
13553;BME280;6847;48.830;9.116;2023-04-20T03:31:19;97684.47;;;4.75;52.31
13553;BME280;6847;48.830;9.116;2023-04-20T03:33:45;97682.25;;;4.72;53.12
13553;BME280;6847;48.830;9.116;2023-04-20T03:36:14;97681.69;;;4.70;53.32
13553;BME280;6847;48.830;9.116;2023-04-20T03:38:42;97529.03;;;3.75;52.37
13553;BME280;6847;48.830;9.116;2023-04-20T03:41:11;97671.47;;;4.67;53.36
13553;BME280;6847;48.830;9.116;2023-04-20T03:43:37;97680.56;;;4.66;52.60
13553;BME280;6847;48.830;9.116;2023-04-20T03:46:06;97674.88;;;4.63;52.98
13553;BME280;6847;48.830;9.116;2023-04-20T03:48:36;97653.78;;;4.50;53.06
13553;BME280;6847;48.830;9.116;2023-04-20T03:51:12;97675.09;;;4.61;52.88
13553;BME280;6847;48.830;9.116;2023-04-20T03:53:40;97668.38;;;4.59;53.29
13553;BME280;6847;48.830;9.116;2023-04-20T03:56:09;97666.75;;;4.58;53.11
13553;BME280;6847;48.830;9.116;2023-04-20T03:58:35;97668.06;;;4.55;52.60
13553;BME280;6847;48.830;9.116;2023-04-20T04:01:06;97651.56;;;4.46;53.36
13553;BME280;6847;48.830;9.116;2023-04-20T04:03:34;97644.81;;;4.44;52.79
13553;BME280;6847;48.830;9.116;2023-04-20T04:06:02;97635.09;;;4.38;52.68
13553;BME280;6847;48.830;9.116;2023-04-20T04:08:32;97670.16;;;4.53;53.23
13553;BME280;6847;48.830;9.116;2023-04-20T04:11:03;97669.03;;;4.49;52.83
13553;BME280;6847;48.830;9.116;2023-04-20T04:13:36;97672.78;;;4.48;52.90
13553;BME280;6847;48.830;9.116;2023-04-20T04:16:06;97665.78;;;4.47;53.01
13553;BME280;6847;48.830;9.116;2023-04-20T04:18:34;97670.31;;;4.46;53.65
13553;BME280;6847;48.830;9.116;2023-04-20T04:21:02;97666.25;;;4.44;53.52
13553;BME280;6847;48.830;9.116;2023-04-20T04:23:33;97670.00;;;4.43;53.69
13553;BME280;6847;48.830;9.116;2023-04-20T04:26:02;97672.09;;;4.41;53.64
13553;BME280;6847;48.830;9.116;2023-04-20T04:28:30;97675.84;;;4.40;54.05
13553;BME280;6847;48.830;9.116;2023-04-20T04:31:00;97657.47;;;4.32;53.60
13553;BME280;6847;48.830;9.116;2023-04-20T04:33:32;97663.59;;;4.44;53.65
13553;BME280;6847;48.830;9.116;2023-04-20T04:35:59;97667.88;;;4.45;53.19
13553;BME280;6847;48.830;9.116;2023-04-20T04:38:29;97666.03;;;4.45;53.98
13553;BME280;6847;48.830;9.116;2023-04-20T04:41:03;97665.78;;;4.47;53.77
13553;BME280;6847;48.830;9.116;2023-04-20T04:43:31;97674.88;;;4.46;53.54
13553;BME280;6847;48.830;9.116;2023-04-20T04:46:04;97666.59;;;4.47;53.25
13553;BME280;6847;48.830;9.116;2023-04-20T04:48:33;97669.50;;;4.46;53.09
13553;BME280;6847;48.830;9.116;2023-04-20T04:51:00;97663.69;;;4.49;54.00
13553;BME280;6847;48.830;9.116;2023-04-20T04:53:29;97638.72;;;4.32;53.62
13553;BME280;6847;48.830;9.116;2023-04-20T04:55:59;97601.78;;;4.17;54.15
13553;BME280;6847;48.830;9.116;2023-04-20T04:58:29;97662.78;;;4.60;53.57
13553;BME280;6847;48.830;9.116;2023-04-20T05:00:57;97644.16;;;4.54;53.92
13553;BME280;6847;48.830;9.116;2023-04-20T05:03:28;97642.13;;;4.61;53.78
13553;BME280;6847;48.830;9.116;2023-04-20T05:05:56;97663.81;;;4.76;53.66
13553;BME280;6847;48.830;9.116;2023-04-20T05:08:23;97656.59;;;4.76;53.42
13553;BME280;6847;48.830;9.116;2023-04-20T05:10:50;97668.03;;;4.89;53.56
13553;BME280;6847;48.830;9.116;2023-04-20T05:13:33;97540.41;;;4.16;53.57
13553;BME280;6847;48.830;9.116;2023-04-20T05:16:01;97558.09;;;4.33;53.60
13553;BME280;6847;48.830;9.116;2023-04-20T05:18:29;97669.44;;;5.13;53.53
13553;BME280;6847;48.830;9.116;2023-04-20T05:20:57;97670.88;;;5.20;54.36
13553;BME280;6847;48.830;9.116;2023-04-20T05:23:26;97663.72;;;5.26;53.82
13553;BME280;6847;48.830;9.116;2023-04-20T05:25:53;97670.53;;;5.34;53.96
13553;BME280;6847;48.830;9.116;2023-04-20T05:28:23;97595.53;;;4.83;54.15
13553;BME280;6847;48.830;9.116;2023-04-20T05:30:52;97628.22;;;5.19;53.41
13553;BME280;6847;48.830;9.116;2023-04-20T05:33:21;97676.97;;;5.54;53.49
13553;BME280;6847;48.830;9.116;2023-04-20T05:35:56;97683.44;;;5.58;53.72
13553;BME280;6847;48.830;9.116;2023-04-20T05:38:25;97684.00;;;5.61;54.16
13553;BME280;6847;48.830;9.116;2023-04-20T05:40:53;97679.53;;;5.66;54.10
13553;BME280;6847;48.830;9.116;2023-04-20T05:43:38;97673.72;;;5.74;53.31
13553;BME280;6847;48.830;9.116;2023-04-20T05:46:07;97673.75;;;5.79;53.88
13553;BME280;6847;48.830;9.116;2023-04-20T05:48:38;97670.88;;;5.86;53.51
13553;BME280;6847;48.830;9.116;2023-04-20T05:51:07;97676.34;;;5.91;53.82
13553;BME280;6847;48.830;9.116;2023-04-20T05:53:35;97669.44;;;6.00;53.63
13553;BME280;6847;48.830;9.116;2023-04-20T05:56:04;97625.72;;;5.83;53.68
13553;BME280;6847;48.830;9.116;2023-04-20T05:58:37;97669.66;;;6.20;53.52
13553;BME280;6847;48.830;9.116;2023-04-20T06:01:04;97671.34;;;6.26;54.13
13553;BME280;6847;48.830;9.116;2023-04-20T06:03:34;97671.41;;;6.37;54.37
13553;BME280;6847;48.830;9.116;2023-04-20T06:06:06;97650.97;;;6.36;53.53
13553;BME280;6847;48.830;9.116;2023-04-20T06:08:34;97669.44;;;6.59;53.50
13553;BME280;6847;48.830;9.116;2023-04-20T06:11:03;97665.22;;;6.68;53.85
13553;BME280;6847;48.830;9.116;2023-04-20T06:13:41;97668.53;;;6.80;53.96
13553;BME280;6847;48.830;9.116;2023-04-20T06:16:10;97666.47;;;6.92;53.48
13553;BME280;6847;48.830;9.116;2023-04-20T06:18:38;97666.00;;;7.05;53.50
13553;BME280;6847;48.830;9.116;2023-04-20T06:21:10;97662.31;;;7.17;53.19
13553;BME280;6847;48.830;9.116;2023-04-20T06:23:43;97673.38;;;7.25;53.40
13553;BME280;6847;48.830;9.116;2023-04-20T06:26:11;97666.72;;;7.33;53.71
13553;BME280;6847;48.830;9.116;2023-04-20T06:28:38;97664.59;;;7.45;53.26
13553;BME280;6847;48.830;9.116;2023-04-20T06:31:09;97658.22;;;7.61;53.28
13553;BME280;6847;48.830;9.116;2023-04-20T06:33:38;97657.19;;;7.77;53.41
13553;BME280;6847;48.830;9.116;2023-04-20T06:36:07;97656.97;;;7.94;53.38
13553;BME280;6847;48.830;9.116;2023-04-20T06:38:37;97659.44;;;8.06;53.38
13553;BME280;6847;48.830;9.116;2023-04-20T06:41:05;97652.97;;;8.12;53.75
13553;BME280;6847;48.830;9.116;2023-04-20T06:43:32;97657.28;;;8.18;53.42
13553;BME280;6847;48.830;9.116;2023-04-20T06:46:01;97647.34;;;8.29;53.66
13553;BME280;6847;48.830;9.116;2023-04-20T06:48:28;97662.75;;;8.38;53.48
13553;BME280;6847;48.830;9.116;2023-04-20T06:50:59;97653.31;;;8.46;53.67
13553;BME280;6847;48.830;9.116;2023-04-20T06:53:27;97653.59;;;8.60;53.56
13553;BME280;6847;48.830;9.116;2023-04-20T06:55:56;97653.03;;;8.78;53.52
13553;BME280;6847;48.830;9.116;2023-04-20T06:58:24;97640.59;;;8.92;53.14
13553;BME280;6847;48.830;9.116;2023-04-20T07:00:51;97617.88;;;9.03;53.19
13553;BME280;6847;48.830;9.116;2023-04-20T07:03:18;97640.47;;;9.43;52.79
13553;BME280;6847;48.830;9.116;2023-04-20T07:05:45;97602.72;;;9.27;53.07
13553;BME280;6847;48.830;9.116;2023-04-20T07:08:11;97656.38;;;9.59;53.09
13553;BME280;6847;48.830;9.116;2023-04-20T07:10:39;97655.47;;;9.79;52.65
13553;BME280;6847;48.830;9.116;2023-04-20T07:13:09;97645.38;;;9.95;52.61
13553;BME280;6847;48.830;9.116;2023-04-20T07:15:36;97643.91;;;10.13;52.97
13553;BME280;6847;48.830;9.116;2023-04-20T07:18:05;97621.72;;;10.16;52.29
13553;BME280;6847;48.830;9.116;2023-04-20T07:20:35;97634.78;;;10.48;52.61
13553;BME280;6847;48.830;9.116;2023-04-20T07:23:07;97640.34;;;10.61;52.19
13553;BME280;6847;48.830;9.116;2023-04-20T07:25:34;97641.25;;;10.81;52.48
13553;BME280;6847;48.830;9.116;2023-04-20T07:28:02;97635.91;;;11.04;52.96
13553;BME280;6847;48.830;9.116;2023-04-20T07:30:32;97642.66;;;11.31;52.10
13553;BME280;6847;48.830;9.116;2023-04-20T07:32:58;97645.84;;;11.62;51.91
13553;BME280;6847;48.830;9.116;2023-04-20T07:35:26;97601.19;;;11.54;51.59
13553;BME280;6847;48.830;9.116;2023-04-20T07:37:56;97630.31;;;11.91;51.72
13553;BME280;6847;48.830;9.116;2023-04-20T07:40:26;97633.41;;;12.03;51.42
13553;BME280;6847;48.830;9.116;2023-04-20T07:42:53;97629.25;;;12.24;51.24
13553;BME280;6847;48.830;9.116;2023-04-20T07:45:21;97629.41;;;12.52;51.41
13553;BME280;6847;48.830;9.116;2023-04-20T07:47:50;97614.69;;;12.72;51.04
13553;BME280;6847;48.830;9.116;2023-04-20T07:50:18;97632.03;;;13.36;50.37
13553;BME280;6847;48.830;9.116;2023-04-20T07:52:48;97633.69;;;14.50;48.75
13553;BME280;6847;48.830;9.116;2023-04-20T07:55:23;97617.88;;;15.75;46.49
13553;BME280;6847;48.830;9.116;2023-04-20T07:57:49;97632.75;;;16.52;45.79
13553;BME280;6847;48.830;9.116;2023-04-20T08:00:17;97645.59;;;16.86;45.78
13553;BME280;6847;48.830;9.116;2023-04-20T08:02:44;97641.88;;;16.30;47.13
13553;BME280;6847;48.830;9.116;2023-04-20T08:05:15;97644.63;;;15.56;48.51
13553;BME280;6847;48.830;9.116;2023-04-20T08:07:42;97639.22;;;15.11;49.04
13553;BME280;6847;48.830;9.116;2023-04-20T08:10:10;97539.69;;;14.16;49.97
13553;BME280;6847;48.830;9.116;2023-04-20T08:12:38;97613.25;;;14.61;50.01
13553;BME280;6847;48.830;9.116;2023-04-20T08:15:06;97641.50;;;14.65;49.98
13553;BME280;6847;48.830;9.116;2023-04-20T08:17:34;97644.28;;;14.73;49.61
13553;BME280;6847;48.830;9.116;2023-04-20T08:20:01;97620.38;;;15.24;49.14
13553;BME280;6847;48.830;9.116;2023-04-20T08:22:31;97633.88;;;16.77;46.91
13553;BME280;6847;48.830;9.116;2023-04-20T08:25:02;97641.78;;;18.09;45.02
13553;BME280;6847;48.830;9.116;2023-04-20T08:27:28;97524.16;;;16.87;46.42
13553;BME280;6847;48.830;9.116;2023-04-20T08:29:56;97642.88;;;16.86;47.64
13553;BME280;6847;48.830;9.116;2023-04-20T08:32:39;97636.25;;;16.18;48.76
13553;BME280;6847;48.830;9.116;2023-04-20T08:35:07;97636.00;;;15.71;49.29
13553;BME280;6847;48.830;9.116;2023-04-20T08:37:36;97635.13;;;15.23;49.83
13553;BME280;6847;48.830;9.116;2023-04-20T08:40:03;97634.38;;;14.77;50.33
13553;BME280;6847;48.830;9.116;2023-04-20T08:42:30;97630.94;;;14.27;50.81
13553;BME280;6847;48.830;9.116;2023-04-20T08:44:58;97629.72;;;13.70;51.37
13553;BME280;6847;48.830;9.116;2023-04-20T08:47:27;97620.81;;;13.10;51.25
13553;BME280;6847;48.830;9.116;2023-04-20T08:49:57;97630.72;;;12.87;51.95
13553;BME280;6847;48.830;9.116;2023-04-20T08:52:27;97623.00;;;12.62;51.73
13553;BME280;6847;48.830;9.116;2023-04-20T08:54:55;97602.63;;;12.27;51.68
13553;BME280;6847;48.830;9.116;2023-04-20T08:57:22;97616.31;;;12.21;51.28
13553;BME280;6847;48.830;9.116;2023-04-20T08:59:51;97629.72;;;12.13;51.20
13553;BME280;6847;48.830;9.116;2023-04-20T09:02:20;97624.50;;;11.98;51.53
13553;BME280;6847;48.830;9.116;2023-04-20T09:04:59;97606.06;;;11.76;51.71
13553;BME280;6847;48.830;9.116;2023-04-20T09:07:26;97606.66;;;11.73;51.81
13553;BME280;6847;48.830;9.116;2023-04-20T09:09:55;97620.75;;;11.75;51.83
13553;BME280;6847;48.830;9.116;2023-04-20T09:12:22;97624.06;;;11.67;51.80
13553;BME280;6847;48.830;9.116;2023-04-20T09:14:51;97620.25;;;11.68;50.79
13553;BME280;6847;48.830;9.116;2023-04-20T09:17:30;97621.31;;;11.72;51.23
13553;BME280;6847;48.830;9.116;2023-04-20T09:19:58;97617.03;;;11.66;50.78
13553;BME280;6847;48.830;9.116;2023-04-20T09:22:29;97618.06;;;11.70;51.73
13553;BME280;6847;48.830;9.116;2023-04-20T09:24:58;97593.88;;;11.55;51.13
13553;BME280;6847;48.830;9.116;2023-04-20T09:27:24;97615.88;;;11.72;51.39
13553;BME280;6847;48.830;9.116;2023-04-20T09:29:58;97615.63;;;11.68;51.33
13553;BME280;6847;48.830;9.116;2023-04-20T09:32:26;97619.81;;;11.61;51.17
13553;BME280;6847;48.830;9.116;2023-04-20T09:34:56;97595.09;;;11.43;51.09
13553;BME280;6847;48.830;9.116;2023-04-20T09:37:24;97599.78;;;11.57;51.18
13553;BME280;6847;48.830;9.116;2023-04-20T09:39:53;97607.31;;;11.65;51.69
13553;BME280;6847;48.830;9.116;2023-04-20T09:42:26;97605.06;;;11.67;51.05
13553;BME280;6847;48.830;9.116;2023-04-20T09:44:53;97603.19;;;11.67;51.47
13553;BME280;6847;48.830;9.116;2023-04-20T09:47:21;97605.59;;;11.69;51.05
13553;BME280;6847;48.830;9.116;2023-04-20T09:49:50;97608.84;;;11.71;51.85
13553;BME280;6847;48.830;9.116;2023-04-20T09:52:17;97461.09;;;10.88;50.79
13553;BME280;6847;48.830;9.116;2023-04-20T09:54:44;97604.28;;;11.90;50.99
13553;BME280;6847;48.830;9.116;2023-04-20T09:57:12;97568.22;;;11.66;51.20
13553;BME280;6847;48.830;9.116;2023-04-20T09:59:41;97611.97;;;11.83;51.07
13553;BME280;6847;48.830;9.116;2023-04-20T10:02:09;97582.81;;;11.70;50.78
13553;BME280;6847;48.830;9.116;2023-04-20T10:04:51;97586.00;;;11.77;51.50
13553;BME280;6847;48.830;9.116;2023-04-20T10:07:29;97600.22;;;11.88;51.83
13553;BME280;6847;48.830;9.116;2023-04-20T10:10:07;97584.94;;;11.73;51.17
13553;BME280;6847;48.830;9.116;2023-04-20T10:12:47;97593.03;;;11.78;51.18
13553;BME280;6847;48.830;9.116;2023-04-20T10:15:14;97599.28;;;11.78;51.04
13553;BME280;6847;48.830;9.116;2023-04-20T10:17:41;97599.84;;;11.75;51.05
13553;BME280;6847;48.830;9.116;2023-04-20T10:20:17;97598.47;;;11.78;50.93
13553;BME280;6847;48.830;9.116;2023-04-20T10:22:46;97590.94;;;11.75;50.55
13553;BME280;6847;48.830;9.116;2023-04-20T10:25:16;97586.03;;;11.72;51.23
13553;BME280;6847;48.830;9.116;2023-04-20T10:27:54;97592.47;;;11.81;51.99
13553;BME280;6847;48.830;9.116;2023-04-20T10:30:24;97591.28;;;11.87;50.94
13553;BME280;6847;48.830;9.116;2023-04-20T10:33:04;97585.84;;;11.87;51.20
13553;BME280;6847;48.830;9.116;2023-04-20T10:35:43;97567.53;;;11.79;51.43
13553;BME280;6847;48.830;9.116;2023-04-20T10:38:13;97579.34;;;11.88;50.42
13553;BME280;6847;48.830;9.116;2023-04-20T10:40:42;97572.81;;;11.89;51.23
13553;BME280;6847;48.830;9.116;2023-04-20T10:43:19;97568.91;;;11.95;51.50
13553;BME280;6847;48.830;9.116;2023-04-20T10:46:12;97560.88;;;11.90;51.17
13553;BME280;6847;48.830;9.116;2023-04-20T10:48:58;97567.81;;;11.96;50.91
13553;BME280;6847;48.830;9.116;2023-04-20T10:51:28;97558.59;;;11.97;51.48
13553;BME280;6847;48.830;9.116;2023-04-20T10:53:59;97522.94;;;11.85;50.98
13553;BME280;6847;48.830;9.116;2023-04-20T10:56:36;97545.91;;;12.11;50.52
13553;BME280;6847;48.830;9.116;2023-04-20T10:59:05;97533.34;;;12.15;51.23
13553;BME280;6847;48.830;9.116;2023-04-20T11:01:34;97534.38;;;12.19;50.91
13553;BME280;6847;48.830;9.116;2023-04-20T11:04:02;97536.78;;;12.21;51.02
13553;BME280;6847;48.830;9.116;2023-04-20T11:06:30;97525.06;;;12.07;51.72
13553;BME280;6847;48.830;9.116;2023-04-20T11:08:56;97539.38;;;12.12;51.01
13553;BME280;6847;48.830;9.116;2023-04-20T11:11:24;97532.50;;;12.01;51.58
13553;BME280;6847;48.830;9.116;2023-04-20T11:14:04;97542.31;;;11.97;51.43
13553;BME280;6847;48.830;9.116;2023-04-20T11:16:33;97539.97;;;11.91;51.76
13553;BME280;6847;48.830;9.116;2023-04-20T11:19:02;97499.31;;;11.67;51.99
13553;BME280;6847;48.830;9.116;2023-04-20T11:21:41;97524.06;;;11.84;52.46
13553;BME280;6847;48.830;9.116;2023-04-20T11:24:26;97528.38;;;11.85;52.09
13553;BME280;6847;48.830;9.116;2023-04-20T11:27:01;97522.38;;;11.88;51.77
13553;BME280;6847;48.830;9.116;2023-04-20T11:29:30;97519.13;;;11.86;52.14
13553;BME280;6847;48.830;9.116;2023-04-20T11:32:03;97524.56;;;11.86;52.27
13553;BME280;6847;48.830;9.116;2023-04-20T11:34:31;97520.75;;;11.87;51.78
13553;BME280;6847;48.830;9.116;2023-04-20T11:37:03;97526.19;;;11.87;51.50
13553;BME280;6847;48.830;9.116;2023-04-20T11:39:31;97528.59;;;11.89;51.94
13553;BME280;6847;48.830;9.116;2023-04-20T11:42:00;97534.59;;;11.85;51.49
13553;BME280;6847;48.830;9.116;2023-04-20T11:44:27;97532.13;;;11.89;52.27
13553;BME280;6847;48.830;9.116;2023-04-20T11:46:56;97474.94;;;11.48;52.05
13553;BME280;6847;48.830;9.116;2023-04-20T11:49:27;97545.91;;;11.93;51.92
13553;BME280;6847;48.830;9.116;2023-04-20T11:51:54;97507.91;;;11.74;51.74
13553;BME280;6847;48.830;9.116;2023-04-20T11:54:21;97482.63;;;11.60;52.00
13553;BME280;6847;48.830;9.116;2023-04-20T11:56:49;97535.72;;;12.03;52.24
13553;BME280;6847;48.830;9.116;2023-04-20T11:59:16;97387.84;;;11.17;51.79
13553;BME280;6847;48.830;9.116;2023-04-20T12:01:44;97529.75;;;12.20;51.73
13553;BME280;6847;48.830;9.116;2023-04-20T12:04:11;97528.25;;;12.28;51.86
13553;BME280;6847;48.830;9.116;2023-04-20T12:06:40;97493.56;;;12.24;51.54
13553;BME280;6847;48.830;9.116;2023-04-20T12:09:07;97510.00;;;12.47;51.77
13553;BME280;6847;48.830;9.116;2023-04-20T12:11:34;97512.53;;;12.57;51.79
13553;BME280;6847;48.830;9.116;2023-04-20T12:14:01;97509.75;;;12.62;51.80
13553;BME280;6847;48.830;9.116;2023-04-20T12:16:29;97494.22;;;12.49;52.23
13553;BME280;6847;48.830;9.116;2023-04-20T12:18:56;97524.63;;;12.65;51.52
13553;BME280;6847;48.830;9.116;2023-04-20T12:21:22;97528.44;;;12.64;52.25
13553;BME280;6847;48.830;9.116;2023-04-20T12:23:51;97525.03;;;12.58;51.66
13553;BME280;6847;48.830;9.116;2023-04-20T12:26:17;97520.19;;;12.55;51.60
13553;BME280;6847;48.830;9.116;2023-04-20T12:28:44;97262.00;;;10.91;51.97
13553;BME280;6847;48.830;9.116;2023-04-20T12:31:11;97518.09;;;12.52;52.44
13553;BME280;6847;48.830;9.116;2023-04-20T12:33:37;97506.41;;;12.51;52.39
13553;BME280;6847;48.830;9.116;2023-04-20T12:36:05;97492.28;;;12.36;52.63
13553;BME280;6847;48.830;9.116;2023-04-20T12:38:32;97511.09;;;12.46;52.66
13553;BME280;6847;48.830;9.116;2023-04-20T12:41:02;97509.72;;;12.48;52.28
13553;BME280;6847;48.830;9.116;2023-04-20T12:43:29;97503.19;;;12.49;52.55
13553;BME280;6847;48.830;9.116;2023-04-20T12:45:55;97500.25;;;12.46;52.06
13553;BME280;6847;48.830;9.116;2023-04-20T12:48:22;97495.44;;;12.43;52.46
13553;BME280;6847;48.830;9.116;2023-04-20T12:50:51;97483.56;;;12.39;52.96
13553;BME280;6847;48.830;9.116;2023-04-20T12:53:21;97446.00;;;12.13;52.78
13553;BME280;6847;48.830;9.116;2023-04-20T12:55:53;97477.09;;;12.35;52.78
13553;BME280;6847;48.830;9.116;2023-04-20T12:58:24;97474.59;;;12.38;53.04
13553;BME280;6847;48.830;9.116;2023-04-20T13:00:51;97466.47;;;12.38;52.34
13553;BME280;6847;48.830;9.116;2023-04-20T13:03:17;97477.72;;;12.45;52.75
13553;BME280;6847;48.830;9.116;2023-04-20T13:05:44;97481.88;;;12.56;52.04
13553;BME280;6847;48.830;9.116;2023-04-20T13:08:12;97491.72;;;12.66;51.94
13553;BME280;6847;48.830;9.116;2023-04-20T13:10:40;97486.22;;;12.71;52.56
13553;BME280;6847;48.830;9.116;2023-04-20T13:13:07;97500.91;;;12.84;51.78
13553;BME280;6847;48.830;9.116;2023-04-20T13:15:36;97505.13;;;12.76;52.46
13553;BME280;6847;48.830;9.116;2023-04-20T13:18:03;97511.38;;;12.63;52.85
13553;BME280;6847;48.830;9.116;2023-04-20T13:20:31;97509.50;;;12.45;52.83
13553;BME280;6847;48.830;9.116;2023-04-20T13:22:59;97502.66;;;12.34;52.73
13553;BME280;6847;48.830;9.116;2023-04-20T13:25:28;97498.97;;;12.24;52.47
13553;BME280;6847;48.830;9.116;2023-04-20T13:28:01;97500.59;;;12.26;52.84